createdAt,value
2019-04-07T00:00:34.278Z,21.80
2019-04-07T00:01:34.416Z,21.88
2019-04-07T00:02:34.613Z,21.89
2019-04-07T00:03:34.584Z,21.69
2019-04-07T00:04:34.136Z,21.59
2019-04-07T00:05:34.558Z,21.99
2019-04-07T00:06:34.146Z,21.80
2019-04-07T00:07:34.554Z,21.80
2019-04-07T00:08:34.157Z,21.61
2019-04-07T00:09:34.403Z,21.69
2019-04-07T00:10:34.315Z,21.69
2019-04-07T00:11:34.605Z,21.80
2019-04-07T00:12:34.602Z,21.88
2019-04-07T00:13:34.182Z,21.61
2019-04-07T00:14:34.188Z,21.50
2019-04-07T00:15:34.482Z,21.99
2019-04-07T00:16:34.201Z,21.80
2019-04-07T00:17:34.203Z,21.89
2019-04-07T00:18:34.208Z,21.69
2019-04-07T00:19:34.216Z,21.80
2019-04-07T00:20:34.221Z,21.88
2019-04-07T00:21:34.224Z,22.08
2019-04-07T00:22:34.541Z,21.98
2019-04-07T00:23:34.235Z,21.98
2019-04-07T00:24:34.316Z,21.79
2019-04-07T00:25:34.244Z,21.79
2019-04-07T00:26:34.251Z,21.69
2019-04-07T00:27:34.257Z,21.80
2019-04-07T00:28:34.301Z,21.80
2019-04-07T00:29:34.424Z,22.08
2019-04-07T00:30:34.271Z,22.08
2019-04-07T00:31:34.277Z,21.98
2019-04-07T00:32:35.003Z,21.98
2019-04-07T00:33:34.288Z,21.79
2019-04-07T00:34:34.719Z,21.98
2019-04-07T00:35:34.297Z,21.98
2019-04-07T00:36:34.309Z,22.09
2019-04-07T00:37:34.309Z,22.08
2019-04-07T00:38:34.703Z,21.99
2019-04-07T00:39:34.584Z,22.17
2019-04-07T00:40:34.900Z,22.27
2019-04-07T00:41:34.329Z,22.17
2019-04-07T00:42:34.711Z,21.89
2019-04-07T00:43:34.341Z,21.80
2019-04-07T00:44:34.436Z,21.88
2019-04-07T00:45:35.323Z,21.98
2019-04-07T00:46:34.466Z,22.17
2019-04-07T00:47:34.853Z,21.98
2019-04-07T00:48:34.367Z,22.08
2019-04-07T00:49:34.765Z,21.59
2019-04-07T00:50:34.724Z,21.98
2019-04-07T00:51:34.382Z,22.17
2019-04-07T00:52:34.937Z,22.46
2019-04-07T00:53:34.392Z,22.46
2019-04-07T00:54:34.404Z,22.46
2019-04-07T00:55:34.404Z,22.46
2019-04-07T00:56:34.618Z,22.56
2019-04-07T00:57:34.414Z,22.56
2019-04-07T00:58:34.426Z,22.56
2019-04-07T00:59:35.148Z,22.27
2019-04-07T01:00:34.627Z,21.98
2019-04-07T01:01:35.030Z,21.88
2019-04-07T01:02:34.441Z,22.27
2019-04-07T01:03:34.919Z,21.88
2019-04-07T01:04:34.451Z,21.79
2019-04-07T01:05:38.474Z,22.46
2019-04-07T01:06:34.574Z,22.36
2019-04-07T01:07:34.530Z,22.17
2019-04-07T01:08:34.675Z,21.98
2019-04-07T01:09:34.481Z,22.66
2019-04-07T01:10:34.812Z,22.36
2019-04-07T01:11:34.490Z,21.88
2019-04-07T01:12:34.662Z,21.79
2019-04-07T01:13:34.650Z,21.88
2019-04-07T01:14:34.504Z,23.14
2019-04-07T01:15:35.195Z,23.04
2019-04-07T01:16:35.248Z,23.24
2019-04-07T01:17:34.529Z,23.04
2019-04-07T01:18:35.474Z,22.94
2019-04-07T01:19:34.529Z,23.14
2019-04-07T01:20:34.534Z,22.85
2019-04-07T01:21:34.629Z,22.75
2019-04-07T01:22:34.714Z,22.46
2019-04-07T01:23:34.772Z,22.85
2019-04-07T01:24:35.221Z,22.86
2019-04-07T01:25:34.614Z,22.56
2019-04-07T01:26:34.581Z,22.56
2019-04-07T01:27:34.641Z,22.56
2019-04-07T01:28:35.323Z,22.27
2019-04-07T01:29:35.336Z,22.66
2019-04-07T01:30:34.843Z,22.85
2019-04-07T01:31:35.179Z,22.75
2019-04-07T01:32:34.672Z,22.27
2019-04-07T01:33:34.602Z,22.08
2019-04-07T01:34:35.035Z,21.98
2019-04-07T01:35:44.953Z,22.27
2019-04-07T01:36:34.618Z,22.17
2019-04-07T01:37:35.234Z,21.98
2019-04-07T01:38:34.627Z,21.88
2019-04-07T01:39:34.968Z,21.79
2019-04-07T01:40:35.195Z,21.59
2019-04-07T01:41:34.913Z,21.59
2019-04-07T01:42:34.649Z,21.79
2019-04-07T01:43:34.654Z,21.79
2019-04-07T01:44:34.662Z,21.98
2019-04-07T01:45:34.666Z,22.27
2019-04-07T01:46:35.378Z,21.69
2019-04-07T01:47:35.383Z,21.79
2019-04-07T01:48:34.683Z,22.08
2019-04-07T01:49:34.806Z,21.88
2019-04-07T01:50:34.691Z,22.17
2019-04-07T01:51:34.934Z,21.98
2019-04-07T01:52:34.850Z,21.88
2019-04-07T01:53:34.706Z,21.98
2019-04-07T01:54:34.711Z,21.59
2019-04-07T01:55:34.718Z,21.88
2019-04-07T01:56:34.722Z,21.88
2019-04-07T01:57:35.416Z,21.69
2019-04-07T01:58:34.841Z,21.59
2019-04-07T01:59:35.468Z,21.88
2019-04-07T02:00:34.747Z,21.59
2019-04-07T02:01:34.747Z,21.59
2019-04-07T02:02:34.754Z,21.50
2019-04-07T02:03:35.691Z,21.69
2019-04-07T02:04:34.767Z,21.69
2019-04-07T02:05:35.285Z,21.88
2019-04-07T02:06:34.932Z,21.79
2019-04-07T02:07:34.783Z,21.98
2019-04-07T02:08:35.357Z,21.79
2019-04-07T02:09:34.790Z,21.88
2019-04-07T02:10:35.155Z,21.88
2019-04-07T02:11:35.088Z,21.79
2019-04-07T02:12:35.156Z,21.59
2019-04-07T02:13:35.080Z,21.59
2019-04-07T02:14:35.421Z,21.79
2019-04-07T02:15:34.823Z,21.79
2019-04-07T02:16:35.599Z,21.79
2019-04-07T02:17:35.146Z,21.98
2019-04-07T02:18:35.417Z,21.88
2019-04-07T02:19:34.842Z,21.69
2019-04-07T02:20:35.362Z,22.08
2019-04-07T02:21:35.000Z,21.98
2019-04-07T02:22:35.439Z,21.79
2019-04-07T02:23:34.862Z,21.40
2019-04-07T02:24:35.601Z,21.21
2019-04-07T02:25:35.122Z,21.59
2019-04-07T02:26:35.099Z,21.59
2019-04-07T02:27:34.897Z,21.79
2019-04-07T02:28:35.042Z,21.59
2019-04-07T02:29:34.892Z,21.40
2019-04-07T02:30:35.249Z,21.40
2019-04-07T02:31:35.844Z,21.31
2019-04-07T02:32:35.648Z,21.31
2019-04-07T02:33:34.963Z,21.21
2019-04-07T02:34:35.959Z,21.59
2019-04-07T02:35:34.926Z,21.50
2019-04-07T02:36:35.755Z,21.59
2019-04-07T02:37:35.232Z,21.59
2019-04-07T02:38:34.943Z,21.40
2019-04-07T02:39:34.947Z,21.50
2019-04-07T02:40:34.953Z,21.50
2019-04-07T02:41:34.956Z,21.40
2019-04-07T02:42:34.963Z,21.11
2019-04-07T02:43:34.999Z,21.40
2019-04-07T02:44:34.977Z,21.40
2019-04-07T02:45:34.978Z,21.40
2019-04-07T02:46:35.182Z,21.21
2019-04-07T02:47:35.311Z,21.21
2019-04-07T02:48:35.217Z,21.69
2019-04-07T02:49:35.595Z,21.11
2019-04-07T02:50:35.030Z,21.59
2019-04-07T02:51:35.138Z,21.50
2019-04-07T02:52:35.709Z,21.59
2019-04-07T02:53:35.053Z,21.59
2019-04-07T02:54:36.016Z,21.50
2019-04-07T02:55:35.571Z,21.31
2019-04-07T02:56:35.697Z,21.21
2019-04-07T02:57:35.897Z,21.31
2019-04-07T02:58:35.852Z,21.21
2019-04-07T02:59:35.347Z,21.59
2019-04-07T03:00:36.325Z,21.59
2019-04-07T03:01:35.150Z,21.59
2019-04-07T03:02:35.069Z,21.11
2019-04-07T03:03:35.070Z,21.79
2019-04-07T03:04:35.314Z,21.59
2019-04-07T03:05:36.086Z,21.79
2019-04-07T03:06:43.966Z,21.31
2019-04-07T03:07:35.711Z,21.01
2019-04-07T03:08:35.655Z,21.40
2019-04-07T03:09:35.099Z,21.21
2019-04-07T03:10:35.200Z,21.88
2019-04-07T03:11:35.405Z,21.50
2019-04-07T03:12:35.395Z,21.40
2019-04-07T03:13:35.138Z,21.50
2019-04-07T03:14:35.127Z,21.59
2019-04-07T03:15:35.134Z,21.21
2019-04-07T03:16:35.503Z,21.59
2019-04-07T03:17:36.052Z,21.50
2019-04-07T03:18:35.855Z,21.59
2019-04-07T03:19:35.447Z,21.59
2019-04-07T03:20:36.159Z,21.50
2019-04-07T03:21:36.165Z,21.21
2019-04-07T03:22:35.169Z,21.11
2019-04-07T03:23:36.386Z,21.31
2019-04-07T03:24:35.178Z,21.31
2019-04-07T03:25:35.650Z,21.31
2019-04-07T03:26:35.189Z,21.31
2019-04-07T03:27:36.119Z,21.11
2019-04-07T03:28:35.202Z,21.11
2019-04-07T03:29:36.400Z,21.50
2019-04-07T03:30:37.872Z,21.40
2019-04-07T03:31:36.560Z,21.31
2019-04-07T03:32:37.834Z,21.31
2019-04-07T03:33:39.581Z,21.11
2019-04-07T03:34:36.230Z,21.01
2019-04-07T03:35:36.036Z,21.01
2019-04-07T03:37:02.966Z,20.92
2019-04-07T03:37:42.807Z,21.01
2019-04-07T03:38:35.347Z,20.83
2019-04-07T03:39:35.534Z,21.01
2019-04-07T03:40:35.594Z,20.83
2019-04-07T03:41:35.269Z,21.01
2019-04-07T03:42:35.817Z,21.01
2019-04-07T03:43:35.850Z,21.50
2019-04-07T03:44:35.282Z,21.01
2019-04-07T03:45:35.813Z,21.01
2019-04-07T03:46:35.296Z,21.40
2019-04-07T03:47:35.510Z,21.40
2019-04-07T03:48:35.486Z,21.31
2019-04-07T03:49:35.309Z,21.21
2019-04-07T03:50:35.314Z,21.21
2019-04-07T03:51:36.199Z,20.92
2019-04-07T03:52:35.503Z,21.01
2019-04-07T03:53:35.669Z,21.01
2019-04-07T03:54:35.531Z,21.01
2019-04-07T03:55:36.441Z,21.11
2019-04-07T03:56:35.819Z,21.40
2019-04-07T03:57:35.413Z,20.92
2019-04-07T03:58:36.277Z,21.11
2019-04-07T03:59:36.399Z,20.92
2019-04-07T04:00:35.631Z,20.73
2019-04-07T04:01:35.785Z,20.53
2019-04-07T04:02:35.375Z,20.73
2019-04-07T04:03:36.365Z,20.73
2019-04-07T04:04:36.222Z,20.83
2019-04-07T04:05:35.918Z,20.83
2019-04-07T04:06:35.445Z,20.83
2019-04-07T04:07:37.087Z,21.01
2019-04-07T04:08:35.405Z,20.83
2019-04-07T04:09:39.091Z,20.92
2019-04-07T04:10:36.414Z,21.11
2019-04-07T04:11:36.158Z,21.31
2019-04-07T04:12:35.771Z,21.01
2019-04-07T04:13:35.814Z,21.01
2019-04-07T04:14:35.437Z,21.01
2019-04-07T04:15:36.466Z,21.11
2019-04-07T04:16:36.090Z,21.31
2019-04-07T04:17:35.451Z,21.01
2019-04-07T04:18:35.456Z,21.01
2019-04-07T04:19:36.154Z,20.83
2019-04-07T04:20:35.468Z,21.21
2019-04-07T04:21:36.337Z,21.01
2019-04-07T04:22:35.932Z,21.31
2019-04-07T04:23:35.695Z,21.21
2019-04-07T04:24:35.490Z,21.40
2019-04-07T04:25:35.547Z,21.40
2019-04-07T04:26:35.832Z,21.11
2019-04-07T04:27:36.767Z,21.31
2019-04-07T04:28:35.511Z,20.83
2019-04-07T04:29:35.515Z,21.01
2019-04-07T04:30:36.024Z,21.01
2019-04-07T04:31:35.796Z,20.92
2019-04-07T04:32:35.530Z,21.11
2019-04-07T04:33:35.649Z,21.31
2019-04-07T04:34:35.592Z,20.53
2019-04-07T04:35:35.554Z,20.92
2019-04-07T04:36:36.065Z,20.73
2019-04-07T04:37:42.546Z,20.92
2019-04-07T04:38:36.453Z,20.73
2019-04-07T04:39:35.591Z,20.73
2019-04-07T04:40:36.187Z,20.83
2019-04-07T04:41:36.364Z,20.63
2019-04-07T04:42:35.869Z,20.73
2019-04-07T04:43:36.060Z,20.92
2019-04-07T04:44:35.944Z,20.63
2019-04-07T04:45:36.339Z,20.92
2019-04-07T04:46:36.636Z,20.63
2019-04-07T04:47:35.613Z,20.73
2019-04-07T04:48:35.613Z,21.01
2019-04-07T04:49:35.617Z,21.01
2019-04-07T04:50:35.623Z,20.83
2019-04-07T04:51:39.280Z,20.92
2019-04-07T04:52:36.266Z,20.63
2019-04-07T04:53:35.637Z,20.63
2019-04-07T04:54:35.643Z,20.92
2019-04-07T04:55:35.649Z,20.83
2019-04-07T04:56:36.137Z,21.01
2019-04-07T04:57:35.658Z,20.83
2019-04-07T04:58:36.032Z,21.11
2019-04-07T04:59:36.592Z,20.83
2019-04-07T05:00:36.285Z,20.83
2019-04-07T05:01:36.247Z,20.73
2019-04-07T05:02:35.684Z,20.83
2019-04-07T05:03:36.213Z,21.01
2019-04-07T05:04:35.697Z,20.92
2019-04-07T05:05:35.707Z,21.11
2019-04-07T05:06:35.788Z,20.73
2019-04-07T05:07:48.015Z,21.31
2019-04-07T05:08:35.975Z,20.83
2019-04-07T05:09:44.186Z,21.01
2019-04-07T05:10:35.843Z,20.92
2019-04-07T05:11:35.930Z,20.92
2019-04-07T05:12:35.736Z,20.92
2019-04-07T05:13:35.828Z,20.92
2019-04-07T05:14:35.746Z,20.92
2019-04-07T05:15:35.761Z,21.21
2019-04-07T05:16:35.756Z,21.11
2019-04-07T05:17:35.760Z,20.92
2019-04-07T05:18:35.988Z,21.01
2019-04-07T05:19:35.782Z,21.21
2019-04-07T05:20:35.982Z,20.73
2019-04-07T05:21:36.202Z,20.92
2019-04-07T05:22:35.943Z,20.63
2019-04-07T05:23:36.013Z,20.73
2019-04-07T05:24:36.661Z,20.73
2019-04-07T05:25:36.114Z,20.63
2019-04-07T05:26:36.487Z,20.92
2019-04-07T05:27:35.813Z,20.93
2019-04-07T05:28:36.987Z,20.92
2019-04-07T05:29:35.824Z,21.21
2019-04-07T05:30:36.502Z,20.92
2019-04-07T05:31:35.943Z,20.83
2019-04-07T05:32:35.837Z,20.53
2019-04-07T05:33:35.847Z,20.43
2019-04-07T05:34:36.641Z,20.93
2019-04-07T05:35:36.309Z,21.03
2019-04-07T05:36:35.863Z,21.12
2019-04-07T05:37:35.863Z,20.92
2019-04-07T05:38:35.869Z,20.92
2019-04-07T05:39:36.197Z,21.21
2019-04-07T05:40:35.884Z,21.11
2019-04-07T05:41:36.312Z,21.01
2019-04-07T05:42:35.891Z,21.01
2019-04-07T05:43:35.900Z,20.92
2019-04-07T05:44:36.402Z,21.11
2019-04-07T05:45:37.482Z,20.92
2019-04-07T05:46:40.910Z,20.54
2019-04-07T05:47:36.528Z,20.74
2019-04-07T05:48:35.921Z,20.83
2019-04-07T05:49:36.341Z,20.54
2019-04-07T05:50:36.059Z,20.53
2019-04-07T05:51:35.936Z,20.93
2019-04-07T05:52:39.504Z,20.54
2019-04-07T05:53:36.084Z,20.34
2019-04-07T05:54:36.191Z,21.41
2019-04-07T05:55:35.958Z,20.74
2019-04-07T05:56:35.963Z,20.74
2019-04-07T05:57:36.116Z,20.83
2019-04-07T05:58:38.672Z,20.93
2019-04-07T05:59:36.504Z,20.93
2019-04-07T06:00:36.176Z,21.31
2019-04-07T06:01:36.702Z,21.61
2019-04-07T06:02:36.333Z,21.80
2019-04-07T06:03:41.012Z,21.59
2019-04-07T06:04:36.115Z,21.51
2019-04-07T06:05:36.782Z,21.40
2019-04-07T06:06:36.819Z,21.70
2019-04-07T06:07:37.114Z,21.89
2019-04-07T06:08:39.193Z,21.31
2019-04-07T06:09:36.220Z,21.12
2019-04-07T06:10:36.034Z,21.31
2019-04-07T06:11:36.240Z,21.03
2019-04-07T06:12:39.320Z,21.41
2019-04-07T06:13:36.048Z,21.31
2019-04-07T06:14:36.782Z,21.31
2019-04-07T06:15:36.060Z,21.41
2019-04-07T06:16:36.066Z,21.31
2019-04-07T06:17:36.752Z,21.12
2019-04-07T06:18:36.814Z,21.12
2019-04-07T06:19:40.637Z,21.61
2019-04-07T06:20:36.086Z,21.61
2019-04-07T06:21:36.630Z,21.70
2019-04-07T06:22:36.097Z,21.61
2019-04-07T06:23:36.430Z,21.51
2019-04-07T06:24:36.107Z,21.41
2019-04-07T06:25:40.862Z,21.51
2019-04-07T06:26:36.430Z,21.51
2019-04-07T06:27:36.123Z,21.51
2019-04-07T06:28:36.128Z,21.61
2019-04-07T06:29:36.608Z,20.83
2019-04-07T06:30:36.990Z,21.51
2019-04-07T06:31:36.286Z,21.80
2019-04-07T06:32:38.408Z,21.70
2019-04-07T06:33:38.115Z,21.22
2019-04-07T06:34:39.789Z,21.61
2019-04-07T06:35:36.568Z,21.70
2019-04-07T06:36:36.170Z,21.70
2019-04-07T06:37:36.345Z,21.31
2019-04-07T06:38:41.584Z,20.93
2019-04-07T06:39:36.197Z,20.54
2019-04-07T06:40:36.192Z,20.83
2019-04-07T06:41:36.753Z,21.31
2019-04-07T06:42:36.511Z,21.31
2019-04-07T06:43:38.226Z,21.12
2019-04-07T06:44:36.805Z,21.51
2019-04-07T06:45:36.217Z,21.41
2019-04-07T06:46:36.860Z,21.31
2019-04-07T06:47:37.088Z,21.51
2019-04-07T06:48:38.013Z,21.41
2019-04-07T06:49:36.238Z,21.61
2019-04-07T06:50:47.525Z,21.41
2019-04-07T06:51:37.216Z,21.51
2019-04-07T06:52:40.572Z,21.22
2019-04-07T06:53:36.434Z,21.31
2019-04-07T06:54:36.271Z,21.70
2019-04-07T06:55:36.337Z,21.61
2019-04-07T06:56:36.999Z,21.70
2019-04-07T06:57:37.712Z,21.70
2019-04-07T06:58:40.843Z,21.22
2019-04-07T06:59:36.291Z,21.70
2019-04-07T07:00:36.490Z,21.51
2019-04-07T07:01:36.302Z,21.61
2019-04-07T07:02:36.829Z,21.61
2019-04-07T07:03:38.816Z,21.61
2019-04-07T07:04:36.717Z,21.61
2019-04-07T07:05:36.323Z,21.61
2019-04-07T07:06:36.327Z,21.51
2019-04-07T07:07:36.428Z,21.41
2019-04-07T07:08:43.752Z,21.22
2019-04-07T07:09:38.634Z,21.61
2019-04-07T07:10:38.986Z,21.51
2019-04-07T07:11:40.849Z,21.61
2019-04-07T07:12:39.156Z,21.61
2019-04-07T07:13:36.790Z,21.61
2019-04-07T07:14:43.294Z,21.61
2019-04-07T07:15:37.168Z,21.61
2019-04-07T07:16:41.310Z,21.70
2019-04-07T07:17:36.542Z,21.70
2019-04-07T07:18:36.435Z,21.61
2019-04-07T07:19:36.397Z,21.22
2019-04-07T07:20:37.273Z,21.70
2019-04-07T07:21:39.306Z,21.41
2019-04-07T07:22:36.411Z,21.41
2019-04-07T07:23:36.472Z,21.80
2019-04-07T07:24:36.959Z,21.80
2019-04-07T07:25:36.430Z,21.61
2019-04-07T07:26:36.667Z,21.61
2019-04-07T07:27:39.034Z,21.70
2019-04-07T07:28:36.760Z,21.51
2019-04-07T07:29:36.451Z,21.70
2019-04-07T07:30:37.114Z,21.70
2019-04-07T07:31:36.897Z,21.70
2019-04-07T07:32:37.309Z,21.70
2019-04-07T07:33:38.405Z,21.89
2019-04-07T07:34:39.818Z,21.89
2019-04-07T07:35:36.482Z,21.89
2019-04-07T07:36:37.093Z,21.89
2019-04-07T07:37:36.491Z,21.89
2019-04-07T07:38:36.496Z,21.89
2019-04-07T07:39:36.560Z,21.61
2019-04-07T07:40:36.508Z,21.89
2019-04-07T07:41:36.602Z,21.80
2019-04-07T07:42:36.627Z,21.89
2019-04-07T07:43:36.990Z,21.89
2019-04-07T07:44:38.389Z,21.70
2019-04-07T07:45:37.179Z,21.70
2019-04-07T07:46:36.540Z,21.80
2019-04-07T07:47:37.134Z,21.70
2019-04-07T07:48:36.861Z,21.61
2019-04-07T07:49:40.092Z,21.70
2019-04-07T07:50:38.089Z,21.89
2019-04-07T07:51:38.648Z,21.99
2019-04-07T07:52:36.572Z,21.61
2019-04-07T07:53:37.259Z,21.80
2019-04-07T07:54:36.813Z,21.61
2019-04-07T07:55:37.862Z,21.80
2019-04-07T07:56:36.756Z,21.80
2019-04-07T07:57:37.076Z,22.09
2019-04-07T07:58:36.602Z,21.89
2019-04-07T07:59:38.981Z,21.80
2019-04-07T08:00:39.837Z,21.89
2019-04-07T08:01:37.323Z,21.99
2019-04-07T08:02:36.622Z,21.99
2019-04-07T08:03:36.631Z,21.80
2019-04-07T08:04:36.669Z,21.99
2019-04-07T08:05:36.670Z,21.80
2019-04-07T08:06:38.527Z,22.09
2019-04-07T08:07:36.650Z,22.09
2019-04-07T08:08:37.275Z,21.99
2019-04-07T08:09:37.044Z,21.80
2019-04-07T08:10:37.567Z,21.89
2019-04-07T08:11:37.373Z,21.80
2019-04-07T08:12:36.678Z,21.80
2019-04-07T08:13:42.127Z,21.61
2019-04-07T08:14:37.125Z,21.70
2019-04-07T08:15:36.693Z,21.51
2019-04-07T08:16:37.357Z,21.70
2019-04-07T08:17:36.703Z,21.80
2019-04-07T08:18:39.387Z,21.99
2019-04-07T08:19:40.704Z,21.99
2019-04-07T08:20:37.369Z,21.89
2019-04-07T08:21:36.954Z,21.99
2019-04-07T08:22:42.866Z,22.09
2019-04-07T08:23:37.381Z,21.99
2019-04-07T08:24:37.267Z,21.99
2019-04-07T08:25:36.898Z,21.99
2019-04-07T08:26:36.750Z,22.09
2019-04-07T08:27:36.758Z,21.99
2019-04-07T08:28:36.907Z,22.09
2019-04-07T08:29:37.564Z,22.09
2019-04-07T08:30:37.205Z,22.09
2019-04-07T08:31:37.275Z,22.19
2019-04-07T08:32:36.785Z,22.09
2019-04-07T08:33:37.426Z,22.09
2019-04-07T08:34:37.184Z,21.89
2019-04-07T08:35:39.482Z,22.09
2019-04-07T08:36:36.805Z,22.28
2019-04-07T08:37:36.810Z,21.99
2019-04-07T08:38:37.593Z,21.99
2019-04-07T08:39:37.525Z,21.99
2019-04-07T08:40:38.912Z,21.99
2019-04-07T08:41:39.157Z,21.99
2019-04-07T08:42:37.025Z,21.89
2019-04-07T08:43:37.359Z,22.09
2019-04-07T08:44:37.014Z,22.09
2019-04-07T08:45:37.127Z,21.99
2019-04-07T08:46:41.624Z,21.80
2019-04-07T08:47:36.865Z,21.81
2019-04-07T08:48:37.451Z,21.70
2019-04-07T08:49:36.874Z,21.80
2019-04-07T08:50:37.450Z,21.81
2019-04-07T08:51:36.886Z,21.81
2019-04-07T08:52:40.594Z,22.09
2019-04-07T08:53:37.714Z,21.99
2019-04-07T08:54:36.913Z,22.09
2019-04-07T08:55:36.908Z,21.91
2019-04-07T08:56:37.681Z,22.10
2019-04-07T08:57:37.070Z,21.80
2019-04-07T08:58:38.730Z,21.80
2019-04-07T08:59:39.897Z,21.71
2019-04-07T09:00:37.260Z,21.81
2019-04-07T09:01:37.192Z,21.91
2019-04-07T09:02:37.100Z,21.52
2019-04-07T09:03:36.950Z,21.81
2019-04-07T09:04:37.011Z,21.52
2019-04-07T09:05:37.081Z,21.91
2019-04-07T09:06:37.472Z,21.23
2019-04-07T09:07:36.972Z,21.71
2019-04-07T09:08:38.181Z,21.52
2019-04-07T09:09:42.790Z,21.81
2019-04-07T09:10:37.218Z,21.23
2019-04-07T09:11:39.980Z,21.62
2019-04-07T09:12:36.999Z,21.71
2019-04-07T09:13:37.327Z,21.62
2019-04-07T09:14:39.487Z,21.23
2019-04-07T09:15:37.016Z,21.62
2019-04-07T09:16:37.027Z,21.13
2019-04-07T09:17:43.674Z,21.33
2019-04-07T09:18:37.381Z,21.33
2019-04-07T09:19:37.038Z,21.23
2019-04-07T09:20:40.286Z,21.42
2019-04-07T09:21:40.900Z,21.13
2019-04-07T09:22:37.754Z,21.04
2019-04-07T09:23:37.060Z,20.84
2019-04-07T09:24:37.115Z,20.94
2019-04-07T09:25:40.013Z,21.04
2019-04-07T09:26:40.580Z,21.13
2019-04-07T09:27:37.454Z,21.13
2019-04-07T09:28:37.784Z,20.84
2019-04-07T09:29:37.659Z,21.04
2019-04-07T09:30:37.870Z,20.26
2019-04-07T09:31:37.104Z,19.10
2019-04-07T09:32:37.112Z,19.98
2019-04-07T09:33:38.095Z,20.07
2019-04-07T09:34:37.986Z,20.17
2019-04-07T09:35:37.672Z,19.98
2019-04-07T09:36:37.414Z,19.98
2019-04-07T09:37:37.779Z,20.07
2019-04-07T09:38:37.143Z,20.26
2019-04-07T09:39:52.803Z,21.71
2019-04-07T09:40:37.223Z,21.62
2019-04-07T09:41:38.340Z,21.62
2019-04-07T09:42:37.859Z,21.62
2019-04-07T09:43:37.170Z,21.62
2019-04-07T09:44:37.768Z,21.24
2019-04-07T09:45:39.405Z,21.44
2019-04-07T09:46:39.621Z,21.82
2019-04-07T09:47:37.978Z,21.82
2019-04-07T09:48:39.419Z,21.62
2019-04-07T09:49:37.882Z,21.82
2019-04-07T09:50:37.562Z,22.30
2019-04-07T09:51:40.375Z,22.69
2019-04-07T09:52:37.221Z,23.08
2019-04-07T09:53:37.228Z,22.78
2019-04-07T09:54:37.344Z,22.88
2019-04-07T09:55:37.849Z,22.78
2019-04-07T09:56:37.509Z,22.50
2019-04-07T09:57:38.932Z,22.98
2019-04-07T09:58:39.323Z,23.08
2019-04-07T09:59:37.558Z,22.98
2019-04-07T10:00:37.268Z,22.78
2019-04-07T10:01:37.272Z,22.78
2019-04-07T10:02:37.325Z,22.78
2019-04-07T10:03:38.146Z,22.69
2019-04-07T10:04:38.602Z,22.88
2019-04-07T10:05:40.204Z,22.69
2019-04-07T10:06:39.147Z,23.36
2019-04-07T10:07:40.238Z,23.75
2019-04-07T10:08:37.422Z,24.14
2019-04-07T10:09:37.966Z,23.56
2019-04-07T10:10:37.325Z,24.43
2019-04-07T10:11:37.390Z,23.36
2019-04-07T10:12:37.352Z,23.28
2019-04-07T10:13:37.340Z,23.36
2019-04-07T10:14:37.577Z,23.65
2019-04-07T10:15:37.495Z,23.65
2019-04-07T10:16:37.358Z,23.75
2019-04-07T10:17:37.364Z,23.94
2019-04-07T10:18:38.295Z,24.23
2019-04-07T10:19:37.476Z,24.23
2019-04-07T10:20:37.381Z,24.33
2019-04-07T10:21:38.225Z,24.23
2019-04-07T10:22:37.464Z,23.94
2019-04-07T10:23:37.573Z,23.96
2019-04-07T10:24:37.415Z,24.04
2019-04-07T10:25:37.411Z,24.14
2019-04-07T10:26:38.000Z,23.66
2019-04-07T10:27:38.253Z,23.66
2019-04-07T10:28:40.204Z,23.66
2019-04-07T10:29:37.681Z,23.57
2019-04-07T10:30:38.141Z,23.38
2019-04-07T10:31:37.830Z,24.15
2019-04-07T10:32:37.452Z,23.66
2019-04-07T10:33:37.823Z,23.57
2019-04-07T10:34:37.547Z,23.47
2019-04-07T10:35:37.467Z,23.66
2019-04-07T10:36:37.511Z,23.66
2019-04-07T10:37:37.900Z,23.57
2019-04-07T10:38:37.485Z,23.47
2019-04-07T10:39:38.120Z,23.66
2019-04-07T10:40:37.947Z,23.57
2019-04-07T10:41:38.135Z,23.38
2019-04-07T10:42:38.054Z,23.18
2019-04-07T10:43:37.516Z,23.76
2019-04-07T10:44:37.822Z,23.47
2019-04-07T10:45:38.262Z,23.28
2019-04-07T10:46:37.578Z,23.38
2019-04-07T10:47:38.397Z,23.28
2019-04-07T10:48:37.930Z,23.28
2019-04-07T10:49:38.124Z,23.18
2019-04-07T10:50:37.905Z,23.18
2019-04-07T10:51:37.565Z,23.38
2019-04-07T10:52:37.808Z,23.57
2019-04-07T10:53:37.575Z,23.66
2019-04-07T10:54:38.192Z,22.89
2019-04-07T10:55:38.046Z,22.80
2019-04-07T10:56:37.593Z,22.99
2019-04-07T10:57:37.876Z,22.89
2019-04-07T10:58:37.902Z,22.89
2019-04-07T10:59:37.609Z,22.89
2019-04-07T11:00:42.204Z,22.70
2019-04-07T11:01:37.913Z,22.50
2019-04-07T11:02:37.638Z,22.22
2019-04-07T11:03:37.911Z,22.22
2019-04-07T11:04:37.658Z,22.50
2019-04-07T11:05:38.330Z,22.22
2019-04-07T11:06:38.350Z,21.62
2019-04-07T11:07:38.236Z,22.11
2019-04-07T11:08:37.664Z,22.02
2019-04-07T11:09:37.670Z,21.73
2019-04-07T11:10:39.386Z,21.72
2019-04-07T11:11:37.887Z,21.34
2019-04-07T11:12:37.884Z,21.82
2019-04-07T11:13:37.694Z,22.02
2019-04-07T11:14:38.425Z,19.98
2019-04-07T11:15:38.222Z,18.92
2019-04-07T11:16:37.729Z,18.34
2019-04-07T11:17:38.305Z,18.33
2019-04-07T11:18:38.249Z,18.14
2019-04-07T11:19:37.810Z,19.01
2019-04-07T11:20:38.426Z,18.04
2019-04-07T11:21:37.740Z,20.84
2019-04-07T11:22:37.752Z,20.75
2019-04-07T11:23:37.755Z,20.75
2019-04-07T11:24:38.087Z,20.26
2019-04-07T11:25:38.471Z,20.37
2019-04-07T11:26:38.565Z,20.07
2019-04-07T11:27:37.777Z,20.28
2019-04-07T11:28:37.975Z,20.28
2019-04-07T11:29:39.601Z,20.56
2019-04-07T11:30:37.795Z,20.95
2019-04-07T11:31:38.518Z,20.95
2019-04-07T11:32:37.929Z,20.95
2019-04-07T11:33:38.073Z,20.95
2019-04-07T11:34:37.834Z,20.95
2019-04-07T11:35:37.825Z,21.04
2019-04-07T11:36:38.570Z,20.86
2019-04-07T11:37:37.865Z,20.95
2019-04-07T11:38:38.565Z,19.31
2019-04-07T11:39:37.849Z,19.12
2019-04-07T11:40:44.498Z,17.85
2019-04-07T11:41:37.860Z,17.95
2019-04-07T11:42:37.866Z,19.20
2019-04-07T11:43:38.069Z,20.08
2019-04-07T11:44:37.879Z,20.08
2019-04-07T11:45:37.883Z,19.79
2019-04-07T11:46:37.891Z,19.79
2019-04-07T11:47:38.068Z,19.79
2019-04-07T11:48:38.367Z,19.60
2019-04-07T11:49:40.791Z,19.89
2019-04-07T11:50:37.916Z,19.98
2019-04-07T11:51:37.963Z,20.08
2019-04-07T11:52:37.925Z,19.89
2019-04-07T11:53:38.273Z,20.18
2019-04-07T11:54:38.162Z,19.98
2019-04-07T11:55:38.693Z,19.98
2019-04-07T11:56:38.270Z,19.79
2019-04-07T11:57:41.166Z,20.37
2019-04-07T11:58:38.675Z,20.08
2019-04-07T11:59:37.966Z,20.28
2019-04-07T12:00:39.802Z,20.19
2019-04-07T12:01:38.248Z,20.57
2019-04-07T12:02:40.437Z,20.96
2019-04-07T12:03:38.691Z,20.95
2019-04-07T12:04:38.037Z,20.28
2019-04-07T12:05:38.001Z,20.28
2019-04-07T12:06:38.641Z,19.42
2019-04-07T12:07:38.015Z,20.09
2019-04-07T12:08:38.672Z,19.80
2019-04-07T12:09:38.027Z,20.00
2019-04-07T12:10:38.733Z,20.09
2019-04-07T12:11:38.662Z,20.67
2019-04-07T12:12:38.650Z,20.38
2019-04-07T12:13:38.636Z,20.77
2019-04-07T12:14:38.500Z,20.77
2019-04-07T12:15:38.776Z,20.28
2019-04-07T12:16:38.069Z,20.48
2019-04-07T12:17:42.084Z,20.67
2019-04-07T12:18:38.674Z,20.38
2019-04-07T12:19:38.747Z,19.90
2019-04-07T12:20:38.090Z,20.19
2019-04-07T12:21:39.294Z,20.09
2019-04-07T12:22:39.163Z,20.37
2019-04-07T12:23:38.278Z,20.38
2019-04-07T12:24:38.117Z,20.67
2019-04-07T12:25:38.459Z,20.47
2019-04-07T12:26:41.958Z,20.48
2019-04-07T12:27:40.639Z,20.57
2019-04-07T12:28:38.142Z,20.47
2019-04-07T12:29:38.618Z,20.08
2019-04-07T12:30:38.152Z,20.08
2019-04-07T12:31:38.157Z,20.95
2019-04-07T12:32:38.162Z,20.86
2019-04-07T12:33:39.344Z,21.14
2019-04-07T12:34:38.633Z,20.67
2019-04-07T12:35:38.180Z,20.86
2019-04-07T12:36:38.678Z,20.37
2019-04-07T12:37:40.923Z,20.86
2019-04-07T12:38:38.198Z,20.57
2019-04-07T12:39:38.718Z,20.76
2019-04-07T12:40:38.906Z,20.96
2019-04-07T12:41:39.014Z,20.96
2019-04-07T12:42:38.672Z,20.67
2019-04-07T12:43:39.093Z,20.48
2019-04-07T12:44:38.322Z,20.28
2019-04-07T12:45:38.499Z,20.00
2019-04-07T12:46:38.749Z,20.09
2019-04-07T12:47:38.255Z,20.28
2019-04-07T12:48:39.151Z,20.28
2019-04-07T12:49:42.120Z,20.56
2019-04-07T12:50:39.161Z,20.08
2019-04-07T12:51:38.569Z,20.08
2019-04-07T12:52:38.283Z,20.18